createdAt,value
2017-03-15T00:00:17.504Z,1028.6
2017-03-15T00:01:19.707Z,1028.7
2017-03-15T00:02:22.540Z,1028.6
2017-03-15T00:03:24.861Z,1028.7
2017-03-15T00:04:27.709Z,1028.6
2017-03-15T00:05:30.398Z,1028.6
2017-03-15T00:06:32.785Z,1028.6
2017-03-15T00:07:35.628Z,1028.6
2017-03-15T00:08:37.967Z,1028.6
2017-03-15T00:09:40.809Z,1028.6
2017-03-15T00:10:43.767Z,1028.5
2017-03-15T00:12:48.514Z,1028.6
2017-03-15T00:13:51.355Z,1028.6
2017-03-15T00:14:54.066Z,1028.5
2017-03-15T00:15:57.084Z,1028.5
2017-03-15T00:16:59.290Z,1028.5
2017-03-15T00:18:01.729Z,1028.6
2017-03-15T00:19:04.569Z,1028.6
2017-03-15T00:20:06.906Z,1028.6
2017-03-15T00:21:10.004Z,1028.5
2017-03-15T00:22:12.340Z,1028.5
2017-03-15T00:23:15.184Z,1028.5
2017-03-15T00:24:17.567Z,1028.5
2017-03-15T00:25:20.415Z,1028.4
2017-03-15T00:26:23.377Z,1028.5
2017-03-15T00:27:25.712Z,1028.5
2017-03-15T00:28:28.054Z,1028.5
2017-03-15T00:29:30.894Z,1028.5
2017-03-15T00:30:33.233Z,1028.4
2017-03-15T00:31:36.196Z,1028.5
2017-03-15T00:32:38.534Z,1028.4
2017-03-15T00:33:41.373Z,1028.4
2017-03-15T00:34:44.213Z,1028.4
2017-03-15T00:35:46.417Z,1028.3
2017-03-15T00:36:49.571Z,1028.4
2017-03-15T00:37:51.914Z,1028.3
2017-03-15T00:38:54.277Z,1028.3
2017-03-15T00:39:57.124Z,1028.3
2017-03-15T00:40:59.834Z,1028.3
2017-03-15T00:42:02.788Z,1028.3
2017-03-15T00:43:04.994Z,1028.1
2017-03-15T00:44:07.838Z,1028.1
2017-03-15T00:45:10.219Z,1028.1
2017-03-15T00:46:13.053Z,1028.1
2017-03-15T00:47:15.648Z,1028.1
2017-03-15T00:48:18.355Z,1028.1
2017-03-15T00:49:20.697Z,1028.1
2017-03-15T00:50:23.539Z,1028.1
2017-03-15T00:51:25.877Z,1028.1
2017-03-15T00:52:28.973Z,1028
2017-03-15T00:53:31.179Z,1028
2017-03-15T00:54:34.023Z,1028.1
2017-03-15T00:55:36.869Z,1028
2017-03-15T00:56:39.213Z,1028
2017-03-15T00:57:42.310Z,1028
2017-03-15T00:58:44.647Z,1028
2017-03-15T00:59:47.353Z,1028.1
2017-03-15T01:00:49.692Z,1028.1
2017-03-15T01:01:52.532Z,1028
2017-03-15T01:02:55.175Z,1028
2017-03-15T01:03:57.517Z,1028
2017-03-15T01:06:02.764Z,1028.1
2017-03-15T01:07:05.602Z,1028.1
2017-03-15T01:08:08.701Z,1028.3
2017-03-15T01:09:11.035Z,1028.3
2017-03-15T01:10:13.378Z,1028.3
2017-03-15T01:11:16.221Z,1028.3
2017-03-15T01:12:18.559Z,1028.3
2017-03-15T01:13:21.654Z,1028.3
2017-03-15T01:14:23.860Z,1028.3
2017-03-15T01:15:26.567Z,1028.3
2017-03-15T01:16:29.271Z,1028.3
2017-03-15T01:17:32.139Z,1028.1
2017-03-15T01:18:34.738Z,1028.3
2017-03-15T01:19:37.075Z,1028.1
2017-03-15T01:20:39.782Z,1028.1
2017-03-15T01:21:42.629Z,1028.3
2017-03-15T01:22:45.351Z,1028.1
2017-03-15T01:23:47.943Z,1028.1
2017-03-15T01:24:50.281Z,1028.1
2017-03-15T01:25:52.988Z,1028.1
2017-03-15T01:26:55.531Z,1028
2017-03-15T01:27:58.243Z,1028
2017-03-15T01:29:01.339Z,1028.1
2017-03-15T01:30:03.681Z,1028.1
2017-03-15T01:31:06.394Z,1028
2017-03-15T01:32:08.601Z,1028.1
2017-03-15T01:33:11.442Z,1028
2017-03-15T01:34:14.534Z,1028.1
2017-03-15T01:35:16.879Z,1028.1
2017-03-15T01:35:47.510Z,1028.1
2017-03-15T01:36:19.536Z,1028
2017-03-15T01:37:21.871Z,1028.1
2017-03-15T01:38:24.704Z,1028.1
2017-03-15T01:39:27.363Z,1028.1
2017-03-15T01:40:29.700Z,1028.1
2017-03-15T01:41:32.544Z,1028
2017-03-15T01:42:35.384Z,1028
2017-03-15T01:43:37.849Z,1028
2017-03-15T01:44:40.448Z,1028
2017-03-15T01:45:42.797Z,1028.1
2017-03-15T01:46:45.638Z,1028
2017-03-15T01:47:48.477Z,1028.1
2017-03-15T01:48:50.828Z,1028
2017-03-15T01:49:53.822Z,1028
2017-03-15T01:50:56.158Z,1028
2017-03-15T01:51:59.001Z,1027.9
2017-03-15T01:53:01.707Z,1028
2017-03-15T01:54:04.042Z,1027.9
2017-03-15T01:55:07.001Z,1027.9
2017-03-15T01:56:09.343Z,1027.9
2017-03-15T01:57:12.176Z,1027.9
2017-03-15T01:58:14.541Z,1028
2017-03-15T01:59:17.253Z,1027.9
2017-03-15T02:00:20.353Z,1027.9
2017-03-15T02:02:25.104Z,1027.8
2017-03-15T02:03:27.994Z,1027.8
2017-03-15T02:04:30.338Z,1027.8
2017-03-15T02:05:33.298Z,1027.7
2017-03-15T02:06:35.640Z,1027.8
2017-03-15T02:07:38.481Z,1027.8
2017-03-15T02:08:40.828Z,1027.8
2017-03-15T02:09:43.683Z,1027.8
2017-03-15T02:10:46.779Z,1027.8
2017-03-15T02:11:48.981Z,1027.8
2017-03-15T02:12:51.819Z,1027.8
2017-03-15T02:13:54.161Z,1027.8
2017-03-15T02:14:57.004Z,1027.8
2017-03-15T02:15:59.963Z,1027.8
2017-03-15T02:17:02.307Z,1027.8
2017-03-15T02:18:04.653Z,1027.8
2017-03-15T02:19:07.359Z,1027.7
2017-03-15T02:20:10.198Z,1027.8
2017-03-15T02:21:13.154Z,1027.8
2017-03-15T02:22:15.499Z,1027.7
2017-03-15T02:23:17.875Z,1027.8
2017-03-15T02:24:20.723Z,1027.7
2017-03-15T02:25:23.058Z,1027.7
2017-03-15T02:26:26.078Z,1027.7
2017-03-15T02:28:31.337Z,1027.7
2017-03-15T02:29:33.673Z,1027.7
2017-03-15T02:30:36.513Z,1027.6
2017-03-15T02:31:39.108Z,1027.6
2017-03-15T02:32:41.447Z,1027.6
2017-03-15T02:33:44.522Z,1027.6
2017-03-15T02:34:46.866Z,1027.6
2017-03-15T02:35:49.573Z,1027.6
2017-03-15T02:36:52.673Z,1027.7
2017-03-15T02:37:55.012Z,1027.7
2017-03-15T02:38:57.352Z,1027.7
2017-03-15T02:40:00.197Z,1027.8
2017-03-15T02:41:02.906Z,1027.7
2017-03-15T02:42:05.497Z,1027.7
2017-03-15T02:43:08.076Z,1027.7
2017-03-15T02:44:10.804Z,1027.7
2017-03-15T02:45:13.511Z,1027.7
2017-03-15T02:46:15.855Z,1027.6
2017-03-15T02:47:18.999Z,1027.6
2017-03-15T02:48:21.358Z,1027.6
2017-03-15T02:49:23.703Z,1027.6
2017-03-15T02:50:26.547Z,1027.5
2017-03-15T02:51:28.888Z,1027.6
2017-03-15T02:52:31.986Z,1027.6
2017-03-15T02:53:34.320Z,1027.6
2017-03-15T02:54:37.033Z,1027.7
2017-03-15T02:55:39.740Z,1027.7
2017-03-15T02:56:42.081Z,1027.6
2017-03-15T02:57:45.092Z,1027.6
2017-03-15T02:58:47.432Z,1027.7
2017-03-15T02:59:50.143Z,1027.6
2017-03-15T03:00:52.982Z,1027.6
2017-03-15T03:01:55.315Z,1027.6
2017-03-15T03:02:58.460Z,1027.6
2017-03-15T03:04:00.806Z,1027.6
2017-03-15T03:05:03.507Z,1027.6
2017-03-15T03:06:05.855Z,1027.5
2017-03-15T03:07:08.558Z,1027.6
2017-03-15T03:08:11.519Z,1027.6
2017-03-15T03:09:13.860Z,1027.6
2017-03-15T03:10:16.699Z,1027.6
2017-03-15T03:11:19.038Z,1027.6
2017-03-15T03:12:21.887Z,1027.6
2017-03-15T03:13:24.484Z,1027.6
2017-03-15T03:14:27.328Z,1027.6
2017-03-15T03:15:29.682Z,1027.6
2017-03-15T03:16:32.526Z,1027.7
2017-03-15T03:17:34.871Z,1027.8
2017-03-15T03:18:37.834Z,1027.7
2017-03-15T03:19:40.041Z,1027.7
2017-03-15T03:20:42.889Z,1027.7
2017-03-15T03:21:45.742Z,1027.7
2017-03-15T03:22:48.091Z,1027.7
2017-03-15T03:23:51.195Z,1027.8
2017-03-15T03:24:53.405Z,1027.8
2017-03-15T03:25:56.252Z,1027.9
2017-03-15T03:26:58.594Z,1027.8
2017-03-15T03:28:01.438Z,1027.9
2017-03-15T03:29:04.086Z,1027.9
2017-03-15T03:30:06.494Z,1027.9
2017-03-15T03:31:09.202Z,1027.9
2017-03-15T03:32:12.049Z,1027.9
2017-03-15T03:33:14.390Z,1027.9
2017-03-15T03:34:17.491Z,1027.9
2017-03-15T03:35:19.835Z,1027.9
2017-03-15T03:36:22.681Z,1028
2017-03-15T03:37:24.890Z,1028
2017-03-15T03:38:27.733Z,1028
2017-03-15T03:39:30.693Z,1028
2017-03-15T03:40:32.901Z,1028
2017-03-15T03:41:35.747Z,1028
2017-03-15T03:42:38.093Z,1028
2017-03-15T03:43:40.946Z,1028
2017-03-15T03:44:44.096Z,1028.1
2017-03-15T03:45:46.436Z,1028
2017-03-15T03:46:48.780Z,1028
2017-03-15T03:47:51.624Z,1028
2017-03-15T03:48:54.342Z,1028
2017-03-15T03:49:56.983Z,1028.1
2017-03-15T03:50:59.324Z,1028.1
2017-03-15T03:52:02.031Z,1028.1
2017-03-15T03:53:04.878Z,1028.3
2017-03-15T03:54:07.220Z,1028.1
2017-03-15T03:55:10.363Z,1028.1
2017-03-15T03:56:12.575Z,1028.1
2017-03-15T03:57:15.419Z,1028.1
2017-03-15T03:58:17.627Z,1028.1
2017-03-15T03:59:20.475Z,1028.1
2017-03-15T04:00:23.621Z,1028.1
2017-03-15T04:01:25.965Z,1028.1
2017-03-15T04:02:28.308Z,1028.1
2017-03-15T04:03:31.160Z,1028.1
2017-03-15T04:05:36.536Z,1028.3
2017-03-15T04:06:38.882Z,1028.3
2017-03-15T04:07:41.731Z,1028.1
2017-03-15T04:08:44.092Z,1028.3
2017-03-15T04:09:46.722Z,1028.3
2017-03-15T04:10:49.814Z,1028.3
2017-03-15T04:12:54.567Z,1028.3
2017-03-15T04:13:57.411Z,1028.3
2017-03-15T04:15:00.126Z,1028.3
2017-03-15T04:17:05.499Z,1028.3
2017-03-15T04:18:07.841Z,1028.4
2017-03-15T04:19:10.689Z,1028.4
2017-03-15T04:20:13.031Z,1028.4
2017-03-15T04:21:15.879Z,1028.4
2017-03-15T04:23:21.435Z,1028.4
2017-03-15T04:24:23.779Z,1028.4
2017-03-15T04:25:26.120Z,1028.4
2017-03-15T04:26:28.968Z,1028.5
2017-03-15T04:27:31.619Z,1028.5
2017-03-15T04:28:34.213Z,1028.5
2017-03-15T04:29:37.057Z,1028.5
2017-03-15T04:30:39.266Z,1028.5
2017-03-15T04:31:42.105Z,1028.5
2017-03-15T04:32:44.950Z,1028.5
2017-03-15T04:34:50.370Z,1028.6
2017-03-15T04:35:52.714Z,1028.5
2017-03-15T04:36:55.063Z,1028.6
2017-03-15T04:37:57.911Z,1028.7
2017-03-15T04:39:00.626Z,1028.6
2017-03-15T04:40:03.273Z,1028.6
2017-03-15T04:41:05.671Z,1028.6
2017-03-15T04:42:08.527Z,1028.6
2017-03-15T04:43:10.871Z,1028.6
2017-03-15T04:44:13.580Z,1028.6
2017-03-15T04:45:16.544Z,1028.6
2017-03-15T04:46:18.884Z,1028.6
2017-03-15T04:47:21.730Z,1028.6
2017-03-15T04:48:24.074Z,1028.6
2017-03-15T04:49:26.919Z,1028.6
2017-03-15T04:50:29.568Z,1028.7
2017-03-15T04:51:32.285Z,1028.6
2017-03-15T04:52:35.004Z,1028.7
2017-03-15T04:53:37.415Z,1028.6
2017-03-15T04:54:40.267Z,1028.6
2017-03-15T04:55:42.876Z,1028.6
2017-03-15T04:56:45.253Z,1028.7
2017-03-15T04:57:47.966Z,1028.7
2017-03-15T04:58:50.543Z,1028.7
2017-03-15T04:59:53.387Z,1028.8
2017-03-15T05:00:56.208Z,1028.8
2017-03-15T05:01:58.545Z,1028.8
2017-03-15T05:03:01.251Z,1028.8
2017-03-15T05:04:03.592Z,1028.8
2017-03-15T05:05:06.444Z,1028.8
2017-03-15T05:06:09.537Z,1028.8
2017-03-15T05:07:11.875Z,1028.8
2017-03-15T05:08:14.217Z,1028.8
2017-03-15T05:09:17.062Z,1028.9
2017-03-15T05:10:19.406Z,1028.9
2017-03-15T05:11:22.416Z,1028.8
2017-03-15T05:12:24.764Z,1028.9
2017-03-15T05:13:27.609Z,1028.9
2017-03-15T05:14:29.953Z,1028.9
2017-03-15T05:15:32.664Z,1029
2017-03-15T05:16:35.816Z,1029
2017-03-15T05:17:38.021Z,1029
2017-03-15T05:18:40.727Z,1029
2017-03-15T05:19:43.070Z,1029
2017-03-15T05:20:45.786Z,1029
2017-03-15T05:21:48.887Z,1029
2017-03-15T05:22:51.229Z,1029
2017-03-15T05:23:54.082Z,1029
2017-03-15T05:24:56.427Z,1029
2017-03-15T05:25:59.276Z,1029
2017-03-15T05:27:01.872Z,1029
2017-03-15T05:28:04.219Z,1029
2017-03-15T05:29:07.074Z,1029
2017-03-15T05:30:09.411Z,1029
2017-03-15T05:31:12.252Z,1029
2017-03-15T05:32:15.351Z,1029
2017-03-15T05:33:17.687Z,1029
2017-03-15T05:34:20.031Z,1029.1
2017-03-15T05:35:22.884Z,1029.1
2017-03-15T05:36:25.228Z,1029.1
2017-03-15T05:37:28.328Z,1029.1
2017-03-15T05:38:30.671Z,1029.1
2017-03-15T05:39:33.516Z,1029.1
2017-03-15T05:40:35.860Z,1029
2017-03-15T05:41:38.760Z,1029.1
2017-03-15T05:42:41.770Z,1029.1
2017-03-15T05:43:44.118Z,1029.1
2017-03-15T05:44:46.463Z,1029.1
2017-03-15T05:45:49.309Z,1029.1
2017-03-15T05:46:51.663Z,1029
2017-03-15T05:47:54.762Z,1029.1
2017-03-15T05:48:56.974Z,1029
2017-03-15T05:49:59.830Z,1029.1
2017-03-15T05:51:02.534Z,1029.1
2017-03-15T05:53:07.675Z,1029.1
2017-03-15T05:54:10.021Z,1029.1
2017-03-15T05:55:12.867Z,1029.1
2017-03-15T05:56:15.711Z,1029.1
2017-03-15T05:57:18.052Z,1029
2017-03-15T05:58:21.152Z,1029.1
2017-03-15T05:59:23.496Z,1029.1
2017-03-15T06:00:26.206Z,1029
2017-03-15T06:01:28.548Z,1029.1
2017-03-15T06:02:31.400Z,1029.2
2017-03-15T06:03:34.052Z,1029.2
2017-03-15T06:04:36.827Z,1029.1
2017-03-15T06:05:39.176Z,1029.1
2017-03-15T06:06:42.023Z,1029.1
2017-03-15T06:07:44.731Z,1029.1
2017-03-15T06:08:47.322Z,1029.1
2017-03-15T06:09:49.666Z,1029.1
2017-03-15T06:10:52.515Z,1029.1
2017-03-15T06:11:54.863Z,1029.1
2017-03-15T06:12:57.578Z,1029.1
2017-03-15T06:14:00.596Z,1029.1
2017-03-15T06:15:02.936Z,1029.1
2017-03-15T06:16:05.781Z,1029
2017-03-15T06:18:10.897Z,1029.1
2017-03-15T06:19:14.043Z,1029.1
2017-03-15T06:20:16.386Z,1029.2
2017-03-15T06:21:18.835Z,1029.2
2017-03-15T06:22:21.684Z,1029.2
2017-03-15T06:23:23.895Z,1029.2
2017-03-15T06:24:27.009Z,1029.3
2017-03-15T06:25:29.368Z,1029.3
2017-03-15T06:26:32.219Z,1029.4
2017-03-15T06:27:34.564Z,1029.4
2017-03-15T06:28:37.271Z,1029.3
2017-03-15T06:30:42.773Z,1029.3
2017-03-15T06:31:45.118Z,1029.3
2017-03-15T06:32:47.963Z,1029.4
2017-03-15T06:33:50.329Z,1029.4
2017-03-15T06:34:53.051Z,1029.4
2017-03-15T06:35:56.148Z,1029.4
2017-03-15T06:36:58.493Z,1029.4
2017-03-15T06:38:00.838Z,1029.5
2017-03-15T06:39:03.780Z,1029.5
2017-03-15T06:41:09.348Z,1029.4
2017-03-15T06:42:11.552Z,1029.4
2017-03-15T06:43:14.399Z,1029.4
2017-03-15T06:44:16.749Z,1029.4
2017-03-15T06:45:19.600Z,1029.4
2017-03-15T06:46:22.189Z,1029.4
2017-03-15T06:47:24.528Z,1029.4
2017-03-15T06:48:27.368Z,1029.4
2017-03-15T06:49:30.209Z,1029.5
2017-03-15T06:50:32.919Z,1029.5
2017-03-15T06:51:35.564Z,1029.6
2017-03-15T06:52:37.775Z,1029.5
2017-03-15T06:53:40.720Z,1029.5
2017-03-15T06:54:43.066Z,1029.5
2017-03-15T06:57:51.414Z,1029.6
2017-03-15T06:58:53.763Z,1029.6
2017-03-15T06:59:56.479Z,1029.5
2017-03-15T07:00:58.830Z,1029.6
2017-03-15T07:02:01.748Z,1029.6
2017-03-15T07:03:04.760Z,1029.6
2017-03-15T07:04:07.102Z,1029.6
2017-03-15T07:05:09.451Z,1029.7
2017-03-15T07:06:12.303Z,1029.7
2017-03-15T07:07:15.161Z,1029.6
2017-03-15T07:08:17.817Z,1029.7
2017-03-15T07:09:20.172Z,1029.6
2017-03-15T07:10:23.016Z,1029.6
2017-03-15T07:11:25.594Z,1029.6
2017-03-15T07:12:28.310Z,1029.6
2017-03-15T07:13:30.660Z,1029.6
2017-03-15T07:14:33.509Z,1029.6
2017-03-15T07:15:35.858Z,1029.7
2017-03-15T07:16:38.566Z,1029.8
2017-03-15T07:17:41.280Z,1029.7
2017-03-15T07:18:44.447Z,1029.7
2017-03-15T07:19:46.795Z,1029.7
2017-03-15T07:20:49.139Z,1029.7
2017-03-15T07:21:51.856Z,1029.7
2017-03-15T07:22:54.704Z,1029.6
2017-03-15T07:23:57.667Z,1029.7
2017-03-15T07:24:59.884Z,1029.8
2017-03-15T07:26:02.459Z,1029.7
2017-03-15T07:27:05.179Z,1029.7
2017-03-15T07:29:10.689Z,1029.8
2017-03-15T07:30:13.037Z,1029.7
2017-03-15T07:31:15.889Z,1029.7
2017-03-15T07:32:18.599Z,1029.7
2017-03-15T07:33:20.943Z,1029.7
2017-03-15T07:34:24.095Z,1029.7
2017-03-15T07:35:26.236Z,1029.7
2017-03-15T07:36:28.953Z,1029.7
2017-03-15T07:37:31.802Z,1029.8
2017-03-15T07:38:34.147Z,1029.7
2017-03-15T07:39:37.532Z,1029.8
2017-03-15T07:40:39.880Z,1029.8
2017-03-15T07:41:42.230Z,1029.8
2017-03-15T07:42:44.944Z,1029.8
2017-03-15T07:43:47.801Z,1029.8
2017-03-15T07:44:50.471Z,1029.9
2017-03-15T07:45:52.813Z,1029.9
2017-03-15T07:46:55.662Z,1029.9
2017-03-15T07:47:58.007Z,1029.9
2017-03-15T07:49:00.931Z,1030
2017-03-15T07:50:03.899Z,1030
2017-03-15T07:51:06.250Z,1030
2017-03-15T07:52:08.581Z,1030.1
2017-03-15T07:53:11.435Z,1030.1
2017-03-15T07:54:14.151Z,1030
2017-03-15T07:55:17.296Z,1030
2017-03-15T07:56:19.506Z,1030
2017-03-15T07:57:22.225Z,1030
2017-03-15T07:58:24.565Z,1030.1
2017-03-15T07:59:27.417Z,1030.1
2017-03-15T08:00:30.530Z,1030.1
2017-03-15T08:01:32.748Z,1030.1
2017-03-15T08:02:35.596Z,1030.1
2017-03-15T08:03:37.821Z,1030.1
2017-03-15T08:04:40.677Z,1030.1
2017-03-15T08:05:43.779Z,1030.1
2017-03-15T08:06:45.989Z,1030.2
2017-03-15T08:08:51.244Z,1030.1
2017-03-15T08:09:54.092Z,1030.2
2017-03-15T08:10:56.739Z,1030.2
2017-03-15T08:11:59.090Z,1030.2
2017-03-15T08:13:01.935Z,1030.2
2017-03-15T08:14:04.781Z,1030.2
2017-03-15T08:15:07.133Z,1030.2
2017-03-15T08:16:10.155Z,1030.2
2017-03-15T08:17:12.504Z,1030.2
2017-03-15T08:18:15.360Z,1030.3
2017-03-15T08:19:17.944Z,1030.2
2017-03-15T08:20:20.791Z,1030.2
2017-03-15T08:21:23.305Z,1030.1
2017-03-15T08:22:25.655Z,1030.1
2017-03-15T08:23:28.501Z,1030
2017-03-15T08:24:31.352Z,1030
2017-03-15T08:25:33.695Z,1030
2017-03-15T08:26:36.797Z,1030
2017-03-15T08:27:39.137Z,1030.1
2017-03-15T08:28:42.047Z,1030
2017-03-15T08:29:44.401Z,1030.1
2017-03-15T08:30:47.252Z,1030.1
2017-03-15T08:31:50.403Z,1030.1
2017-03-15T08:32:52.751Z,1030.1
2017-03-15T08:33:54.959Z,1030
2017-03-15T08:34:58.038Z,1030
2017-03-15T08:36:00.397Z,1030
2017-03-15T08:37:03.275Z,1029.9
2017-03-15T08:38:05.679Z,1030
2017-03-15T08:39:08.401Z,1029.9
2017-03-15T08:40:11.248Z,1030
2017-03-15T08:41:14.105Z,1029.9
2017-03-15T08:42:16.752Z,1030
2017-03-15T08:43:19.029Z,1029.8
2017-03-15T08:44:21.875Z,1029.8
2017-03-15T08:45:24.584Z,1029.9
2017-03-15T08:46:27.435Z,1029.8
2017-03-15T08:47:30.085Z,1029.9
2017-03-15T08:48:32.431Z,1029.9
2017-03-15T08:49:35.276Z,1029.9
2017-03-15T08:50:38.131Z,1029.9
2017-03-15T08:51:40.481Z,1029.9
2017-03-15T08:52:43.639Z,1029.9
2017-03-15T08:53:45.980Z,1029.9
2017-03-15T08:55:51.236Z,1029.8
2017-03-15T08:56:21.876Z,1029.8
2017-03-15T08:56:54.031Z,1029.8
2017-03-15T08:57:56.626Z,1029.8
2017-03-15T08:58:59.473Z,1029.8
2017-03-15T09:00:01.873Z,1029.9
2017-03-15T09:01:04.722Z,1029.9
2017-03-15T09:02:07.062Z,1029.9
2017-03-15T09:03:10.399Z,1030
2017-03-15T09:05:15.165Z,1030
2017-03-15T09:06:18.009Z,1030
2017-03-15T09:07:20.857Z,1030
2017-03-15T09:08:23.872Z,1030
2017-03-15T09:09:26.223Z,1030
2017-03-15T09:10:28.935Z,1030.1
2017-03-15T09:11:31.276Z,1030
2017-03-15T09:12:33.984Z,1030.1
2017-03-15T09:13:37.088Z,1030.1
2017-03-15T09:14:39.436Z,1030
2017-03-15T09:15:42.288Z,1030
2017-03-15T09:16:44.637Z,1030.1
2017-03-15T09:17:47.565Z,1030
2017-03-15T09:18:50.677Z,1030.1
2017-03-15T09:19:53.028Z,1030.1
2017-03-15T09:20:55.378Z,1030
2017-03-15T09:21:58.229Z,1030.1
2017-03-15T09:23:01.074Z,1030.1
2017-03-15T09:24:04.100Z,1030.1
2017-03-15T09:25:06.449Z,1030.2
2017-03-15T09:26:09.163Z,1030.1
2017-03-15T09:28:14.413Z,1030.2
2017-03-15T09:29:17.514Z,1030.2
2017-03-15T09:30:19.871Z,1030.2
2017-03-15T09:31:22.578Z,1030.2
2017-03-15T09:32:25.347Z,1030.2
2017-03-15T09:33:27.695Z,1030.2
2017-03-15T09:34:30.846Z,1030.2
2017-03-15T09:35:33.200Z,1030.2
2017-03-15T09:36:36.103Z,1030.1
2017-03-15T09:37:38.682Z,1030.2
2017-03-15T09:38:41.397Z,1030.2
2017-03-15T09:39:44.043Z,1030.2
2017-03-15T09:40:46.418Z,1030.2
2017-03-15T09:41:49.270Z,1030.2
2017-03-15T09:42:52.041Z,1030.2
2017-03-15T09:43:54.891Z,1030.2
2017-03-15T09:44:57.489Z,1030.2
2017-03-15T09:47:02.743Z,1030.2
2017-03-15T09:48:05.457Z,1030.3
2017-03-15T09:49:08.167Z,1030.3
2017-03-15T09:50:11.183Z,1030.3
2017-03-15T09:51:13.531Z,1030.3
2017-03-15T09:52:16.244Z,1030.3
2017-03-15T09:53:18.958Z,1030.3
2017-03-15T09:54:21.362Z,1030.2
2017-03-15T09:55:24.506Z,1030.3
2017-03-15T09:56:26.845Z,1030.2
2017-03-15T09:58:32.156Z,1030.2
2017-03-15T09:59:34.863Z,1030.2
2017-03-15T10:01:40.425Z,1030.2
2017-03-15T10:02:43.275Z,1030.1
2017-03-15T10:03:45.624Z,1030.1
2017-03-15T10:04:48.468Z,1030.2
2017-03-15T10:05:51.184Z,1030.1
2017-03-15T10:06:53.831Z,1030.1
2017-03-15T10:07:56.679Z,1030.1
2017-03-15T10:08:58.897Z,1030.2
2017-03-15T10:10:01.836Z,1030.1
2017-03-15T10:11:04.552Z,1030.1
2017-03-15T10:12:07.706Z,1030.1
2017-03-15T10:13:10.054Z,1030.2
2017-03-15T10:14:12.402Z,1030.2
2017-03-15T10:15:14.978Z,1030.2
2017-03-15T10:16:17.822Z,1030.2
2017-03-15T10:17:20.794Z,1030.2
2017-03-15T10:18:23.133Z,1030.2
2017-03-15T10:19:25.978Z,1030.1
2017-03-15T10:20:28.822Z,1030.1
2017-03-15T10:21:31.178Z,1030.2
2017-03-15T10:22:34.187Z,1030.2
2017-03-15T10:23:36.529Z,1030.1
2017-03-15T10:24:39.238Z,1030.1
2017-03-15T10:25:41.942Z,1030.2
2017-03-15T10:26:44.653Z,1030.2
2017-03-15T10:27:47.756Z,1030.1
2017-03-15T10:28:49.977Z,1030.1
2017-03-15T10:29:52.692Z,1030.1
2017-03-15T10:30:55.537Z,1030
2017-03-15T10:31:58.255Z,1030
2017-03-15T10:33:00.898Z,1030
2017-03-15T10:34:03.244Z,1030
2017-03-15T10:35:06.097Z,1030
2017-03-15T10:36:08.947Z,1030
2017-03-15T10:37:11.295Z,1030
2017-03-15T10:38:14.392Z,1030
2017-03-15T10:39:16.737Z,1030
2017-03-15T10:40:19.694Z,1029.9
2017-03-15T10:41:21.908Z,1029.9
2017-03-15T10:42:24.751Z,1030
2017-03-15T10:43:27.899Z,1030
2017-03-15T10:44:30.248Z,1030
2017-03-15T10:45:32.960Z,1029.9
2017-03-15T10:46:35.309Z,1029.9
2017-03-15T10:47:38.016Z,1029.9
2017-03-15T10:48:41.162Z,1029.8
2017-03-15T10:49:43.502Z,1029.8
2017-03-15T10:50:46.210Z,1029.9
2017-03-15T10:51:48.921Z,1029.9
2017-03-15T10:52:51.762Z,1029.9
2017-03-15T10:53:54.457Z,1030
2017-03-15T10:54:56.811Z,1029.9
2017-03-15T10:55:59.396Z,1029.9
2017-03-15T10:57:02.107Z,1029.9
2017-03-15T10:58:04.881Z,1029.9
2017-03-15T10:59:07.898Z,1030
2017-03-15T11:00:10.243Z,1029.9
2017-03-15T11:01:13.175Z,1029.9
2017-03-15T11:02:15.758Z,1029.9
2017-03-15T11:03:18.606Z,1029.9
2017-03-15T11:04:21.573Z,1029.9
2017-03-15T11:05:23.916Z,1029.9
2017-03-15T11:06:26.502Z,1030
2017-03-15T11:07:29.346Z,1029.9
2017-03-15T11:08:31.691Z,1029.8
2017-03-15T11:09:34.704Z,1029.9
2017-03-15T11:10:37.412Z,1029.9
2017-03-15T11:11:39.753Z,1029.8
2017-03-15T11:12:42.466Z,1029.9
2017-03-15T11:13:45.313Z,1029.8
2017-03-15T11:14:47.961Z,1029.8
2017-03-15T11:15:50.803Z,1029.8
2017-03-15T11:16:53.512Z,1029.8
2017-03-15T11:17:55.720Z,1029.8
2017-03-15T11:18:58.564Z,1029.9
2017-03-15T11:20:01.718Z,1029.9
2017-03-15T11:21:04.075Z,1029.8
2017-03-15T11:22:06.651Z,1029.8
2017-03-15T11:23:09.224Z,1029.9
2017-03-15T11:24:12.067Z,1029.8
2017-03-15T11:25:15.080Z,1029.9
2017-03-15T11:26:17.426Z,1029.9
2017-03-15T11:27:19.873Z,1029.9
2017-03-15T11:28:22.584Z,1029.9
2017-03-15T11:29:25.299Z,1029.9
2017-03-15T11:30:28.398Z,1029.9
2017-03-15T11:31:30.605Z,1029.9
2017-03-15T11:32:33.448Z,1029.9
2017-03-15T11:33:36.298Z,1030
2017-03-15T11:34:39.149Z,1029.9
2017-03-15T11:36:44.659Z,1029.8
2017-03-15T11:37:46.998Z,1029.8
2017-03-15T11:38:49.845Z,1029.8
2017-03-15T11:39:52.557Z,1029.8
2017-03-15T11:40:54.899Z,1029.8
2017-03-15T11:41:58.051Z,1029.8
2017-03-15T11:43:00.398Z,1029.7
2017-03-15T11:44:03.113Z,1029.8
2017-03-15T11:45:05.958Z,1029.7
2017-03-15T11:46:08.298Z,1029.8
2017-03-15T11:47:11.398Z,1029.7
2017-03-15T11:48:13.740Z,1029.7
2017-03-15T11:49:16.581Z,1029.7
2017-03-15T11:50:19.301Z,1029.7
2017-03-15T11:51:21.649Z,1029.8
2017-03-15T11:52:24.797Z,1029.7
2017-03-15T11:53:27.142Z,1029.7
2017-03-15T11:54:29.985Z,1029.7
2017-03-15T11:55:32.394Z,1029.7
2017-03-15T11:56:35.246Z,1029.7
2017-03-15T11:57:38.342Z,1029.6
2017-03-15T11:58:40.687Z,1029.7
2017-03-15T11:59:43.534Z,1029.6
2017-03-15T12:00:46.108Z,1029.6
2017-03-15T12:01:48.816Z,1029.6
2017-03-15T12:03:54.389Z,1029.6
2017-03-15T12:04:56.737Z,1029.6
2017-03-15T12:05:59.383Z,1029.5
2017-03-15T12:07:02.094Z,1029.5
2017-03-15T12:08:04.934Z,1029.4
2017-03-15T12:09:08.087Z,1029.5
2017-03-15T12:10:10.431Z,1029.4
2017-03-15T12:11:12.774Z,1029.4
2017-03-15T12:12:15.614Z,1029.5
2017-03-15T12:13:18.322Z,1029.5
2017-03-15T12:15:23.875Z,1029.4
2017-03-15T12:16:26.223Z,1029.4
2017-03-15T12:17:29.091Z,1029.4
2017-03-15T12:18:31.798Z,1029.4
2017-03-15T12:19:34.373Z,1029.4
2017-03-15T12:20:37.388Z,1029.4
2017-03-15T12:21:39.731Z,1029.5
2017-03-15T12:22:42.442Z,1029.4
2017-03-15T12:23:45.151Z,1029.4
2017-03-15T12:24:48.068Z,1029.4
2017-03-15T12:25:50.785Z,1029.3
2017-03-15T12:26:53.129Z,1029.3
2017-03-15T12:27:55.834Z,1029.2
2017-03-15T12:28:58.610Z,1029.2
2017-03-15T12:30:01.319Z,1029.1
2017-03-15T12:31:04.468Z,1029.2
2017-03-15T12:32:06.815Z,1029.1
2017-03-15T12:34:12.067Z,1029.1
2017-03-15T12:35:14.911Z,1029.1
2017-03-15T12:36:17.503Z,1029.1
2017-03-15T12:37:19.846Z,1029
2017-03-15T12:38:22.555Z,1029
2017-03-15T12:39:25.398Z,1029.1
2017-03-15T12:41:30.955Z,1029.1
2017-03-15T12:42:33.300Z,1029.1
2017-03-15T12:44:39.056Z,1029.1
2017-03-15T12:51:58.093Z,1029
2017-03-15T12:54:02.942Z,1029
2017-03-15T12:55:05.787Z,1029
2017-03-15T12:59:16.653Z,1029
2017-03-15T13:02:24.544Z,1029
2017-03-15T13:04:30.043Z,1029
2017-03-15T13:05:32.381Z,1029
2017-03-15T13:06:35.231Z,1029
2017-03-15T13:07:38.078Z,1029
2017-03-15T13:08:40.423Z,1029
2017-03-15T13:09:43.570Z,1029
2017-03-15T13:10:45.913Z,1029.1
2017-03-15T13:11:48.633Z,1029
2017-03-15T13:12:51.473Z,1029
2017-03-15T13:13:54.322Z,1029
2017-03-15T13:14:57.148Z,1029
2017-03-15T13:15:59.353Z,1029.1
2017-03-15T13:17:02.263Z,1029.1
2017-03-15T13:18:04.973Z,1029
2017-03-15T13:19:07.551Z,1029
2017-03-15T13:20:10.494Z,1029.1
2017-03-15T13:21:13.067Z,1029
2017-03-15T13:22:15.410Z,1029.1
2017-03-15T13:23:18.252Z,1029.1
2017-03-15T13:24:21.093Z,1029
2017-03-15T13:25:23.686Z,1029
2017-03-15T13:26:26.535Z,1029.1
2017-03-15T13:27:28.881Z,1029
2017-03-15T13:28:31.592Z,1029
2017-03-15T13:29:34.436Z,1029
2017-03-15T13:30:37.182Z,1029
2017-03-15T13:31:39.521Z,1029.1
2017-03-15T13:32:42.365Z,1029
2017-03-15T13:33:45.205Z,1029
2017-03-15T13:34:47.542Z,1029
2017-03-15T13:35:50.693Z,1029
2017-03-15T13:36:53.038Z,1028.9
2017-03-15T13:37:55.883Z,1029
2017-03-15T13:38:58.732Z,1029.1
2017-03-15T13:40:01.072Z,1029
2017-03-15T13:41:04.223Z,1029
2017-03-15T13:42:06.630Z,1029
2017-03-15T13:43:09.338Z,1029.1
2017-03-15T13:44:12.182Z,1029
2017-03-15T13:45:14.520Z,1029.1
2017-03-15T13:46:17.617Z,1029
2017-03-15T13:47:19.966Z,1029.1
2017-03-15T13:48:22.810Z,1029
2017-03-15T13:49:25.164Z,1029
2017-03-15T13:50:28.003Z,1029.1
2017-03-15T13:51:31.151Z,1029.1
2017-03-15T13:52:33.553Z,1029.1